sensor_id;sensor_type;location;lat;lon;timestamp;pressure;altitude;pressure_sealevel;temperature;humidity
9746;BME280;4912;50.836;12.958;2024-03-17T00:01:41;98463.19;;;7.36;75.37
9746;BME280;4912;50.836;12.958;2024-03-17T00:04:11;98465.44;;;7.42;75.76
9746;BME280;4912;50.836;12.958;2024-03-17T00:06:37;98463.09;;;7.40;75.55
9746;BME280;4912;50.836;12.958;2024-03-17T00:09:09;98463.28;;;7.33;75.22
9746;BME280;4912;50.836;12.958;2024-03-17T00:11:36;98471.44;;;7.36;76.10
9746;BME280;4912;50.836;12.958;2024-03-17T00:14:05;98474.19;;;7.36;75.27
9746;BME280;4912;50.836;12.958;2024-03-17T00:16:32;98474.91;;;7.40;74.68
9746;BME280;4912;50.836;12.958;2024-03-17T00:19:01;98471.00;;;7.38;74.08
9746;BME280;4912;50.836;12.958;2024-03-17T00:21:28;98469.28;;;7.44;74.13
9746;BME280;4912;50.836;12.958;2024-03-17T00:23:57;98466.22;;;7.42;74.25
9746;BME280;4912;50.836;12.958;2024-03-17T00:26:26;98465.19;;;7.36;73.63
9746;BME280;4912;50.836;12.958;2024-03-17T00:28:55;98467.41;;;7.41;73.63
9746;BME280;4912;50.836;12.958;2024-03-17T00:31:22;98466.53;;;7.44;72.85
9746;BME280;4912;50.836;12.958;2024-03-17T00:33:51;98469.56;;;7.50;72.86
9746;BME280;4912;50.836;12.958;2024-03-17T00:36:18;98467.03;;;7.55;72.57
9746;BME280;4912;50.836;12.958;2024-03-17T00:38:47;98467.22;;;7.64;72.14
9746;BME280;4912;50.836;12.958;2024-03-17T00:41:14;98480.13;;;7.67;71.31
9746;BME280;4912;50.836;12.958;2024-03-17T00:43:46;98469.34;;;7.73;71.14
9746;BME280;4912;50.836;12.958;2024-03-17T00:46:12;98468.84;;;7.62;70.40
9746;BME280;4912;50.836;12.958;2024-03-17T00:48:42;98467.13;;;7.68;70.58
9746;BME280;4912;50.836;12.958;2024-03-17T00:51:09;98463.16;;;7.69;70.96
9746;BME280;4912;50.836;12.958;2024-03-17T00:53:40;98466.19;;;7.74;70.77
9746;BME280;4912;50.836;12.958;2024-03-17T00:56:06;98470.84;;;7.77;70.95
9746;BME280;4912;50.836;12.958;2024-03-17T00:58:35;98464.78;;;7.82;70.57
9746;BME280;4912;50.836;12.958;2024-03-17T01:01:04;98456.31;;;7.90;70.52
9746;BME280;4912;50.836;12.958;2024-03-17T01:03:34;98462.53;;;7.94;71.88
9746;BME280;4912;50.836;12.958;2024-03-17T01:06:02;98455.81;;;7.95;72.33
9746;BME280;4912;50.836;12.958;2024-03-17T01:08:32;98462.00;;;7.99;72.23
9746;BME280;4912;50.836;12.958;2024-03-17T01:10:58;98461.13;;;8.02;74.51
9746;BME280;4912;50.836;12.958;2024-03-17T01:13:28;98457.94;;;8.03;72.96
9746;BME280;4912;50.836;12.958;2024-03-17T01:15:55;98452.78;;;8.05;71.35
9746;BME280;4912;50.836;12.958;2024-03-17T01:18:27;98450.25;;;8.11;70.54
9746;BME280;4912;50.836;12.958;2024-03-17T01:20:55;98462.13;;;8.08;69.80
9746;BME280;4912;50.836;12.958;2024-03-17T01:23:24;98461.47;;;8.04;69.71
9746;BME280;4912;50.836;12.958;2024-03-17T01:25:51;98465.97;;;7.98;69.63
9746;BME280;4912;50.836;12.958;2024-03-17T01:28:20;98461.13;;;8.02;69.20
9746;BME280;4912;50.836;12.958;2024-03-17T01:30:47;98458.59;;;8.07;69.42
9746;BME280;4912;50.836;12.958;2024-03-17T01:33:16;98455.75;;;8.11;70.55
9746;BME280;4912;50.836;12.958;2024-03-17T01:35:45;98463.69;;;8.09;69.94
9746;BME280;4912;50.836;12.958;2024-03-17T01:38:15;98453.72;;;7.99;68.56
9746;BME280;4912;50.836;12.958;2024-03-17T01:40:41;98457.19;;;7.87;68.83
9746;BME280;4912;50.836;12.958;2024-03-17T01:43:10;98453.31;;;7.84;68.26
9746;BME280;4912;50.836;12.958;2024-03-17T01:45:37;98459.44;;;7.92;68.53
9746;BME280;4912;50.836;12.958;2024-03-17T01:48:08;98450.13;;;7.86;68.29
9746;BME280;4912;50.836;12.958;2024-03-17T01:50:39;98456.66;;;7.92;68.75
9746;BME280;4912;50.836;12.958;2024-03-17T01:53:12;98455.47;;;7.93;69.08
9746;BME280;4912;50.836;12.958;2024-03-17T01:55:39;98455.41;;;7.80;68.95
9746;BME280;4912;50.836;12.958;2024-03-17T01:58:11;98456.03;;;7.71;69.15
9746;BME280;4912;50.836;12.958;2024-03-17T02:00:37;98449.81;;;7.67;68.98
9746;BME280;4912;50.836;12.958;2024-03-17T02:03:07;98454.66;;;7.63;69.05
9746;BME280;4912;50.836;12.958;2024-03-17T02:05:34;98447.59;;;7.62;69.04
9746;BME280;4912;50.836;12.958;2024-03-17T02:08:03;98448.28;;;7.50;69.30
9746;BME280;4912;50.836;12.958;2024-03-17T02:10:33;98454.59;;;7.51;70.09
9746;BME280;4912;50.836;12.958;2024-03-17T02:13:02;98452.44;;;7.58;70.25
9746;BME280;4912;50.836;12.958;2024-03-17T02:15:29;98447.59;;;7.62;69.77
9746;BME280;4912;50.836;12.958;2024-03-17T02:17:58;98450.69;;;7.64;69.88
9746;BME280;4912;50.836;12.958;2024-03-17T02:20:25;98453.72;;;7.70;69.83
9746;BME280;4912;50.836;12.958;2024-03-17T02:23:09;98455.00;;;7.49;69.61
9746;BME280;4912;50.836;12.958;2024-03-17T02:25:38;98452.00;;;7.60;70.01
9746;BME280;4912;50.836;12.958;2024-03-17T02:28:05;98460.75;;;7.55;69.95
9746;BME280;4912;50.836;12.958;2024-03-17T02:30:34;98461.22;;;7.53;69.63
9746;BME280;4912;50.836;12.958;2024-03-17T02:33:01;98452.25;;;7.49;69.62
9746;BME280;4912;50.836;12.958;2024-03-17T02:35:30;98455.72;;;7.53;69.18
9746;BME280;4912;50.836;12.958;2024-03-17T02:37:56;98448.97;;;7.54;69.58
9746;BME280;4912;50.836;12.958;2024-03-17T02:40:28;98450.19;;;7.37;69.54
9746;BME280;4912;50.836;12.958;2024-03-17T02:42:55;98444.09;;;7.29;70.21
9746;BME280;4912;50.836;12.958;2024-03-17T02:45:25;98451.22;;;7.27;69.87
9746;BME280;4912;50.836;12.958;2024-03-17T02:47:54;98450.56;;;7.07;70.47
9746;BME280;4912;50.836;12.958;2024-03-17T02:50:23;98446.94;;;7.26;70.79
9746;BME280;4912;50.836;12.958;2024-03-17T02:52:52;98447.44;;;7.37;70.37
9746;BME280;4912;50.836;12.958;2024-03-17T02:55:21;98445.13;;;7.35;70.33
9746;BME280;4912;50.836;12.958;2024-03-17T02:57:54;98446.09;;;7.29;69.43
9746;BME280;4912;50.836;12.958;2024-03-17T03:00:23;98447.34;;;6.92;70.75
9746;BME280;4912;50.836;12.958;2024-03-17T03:02:52;98447.06;;;6.86;70.81
9746;BME280;4912;50.836;12.958;2024-03-17T03:05:21;98450.25;;;6.85;70.91
9746;BME280;4912;50.836;12.958;2024-03-17T03:07:51;98440.28;;;6.91;70.79
9746;BME280;4912;50.836;12.958;2024-03-17T03:10:20;98447.34;;;6.92;70.64
9746;BME280;4912;50.836;12.958;2024-03-17T03:12:49;98444.69;;;6.88;70.99
9746;BME280;4912;50.836;12.958;2024-03-17T03:15:21;98448.47;;;6.94;70.39
9746;BME280;4912;50.836;12.958;2024-03-17T03:17:50;98441.59;;;7.03;70.76
9746;BME280;4912;50.836;12.958;2024-03-17T03:20:20;98445.63;;;7.14;70.14
9746;BME280;4912;50.836;12.958;2024-03-17T03:22:49;98444.34;;;7.19;70.38
9746;BME280;4912;50.836;12.958;2024-03-17T03:25:18;98438.84;;;7.35;69.92
9746;BME280;4912;50.836;12.958;2024-03-17T03:27:47;98445.41;;;7.41;69.57
9746;BME280;4912;50.836;12.958;2024-03-17T03:30:17;98449.19;;;7.47;68.96
9746;BME280;4912;50.836;12.958;2024-03-17T03:32:49;98440.91;;;7.47;69.09
9746;BME280;4912;50.836;12.958;2024-03-17T03:35:18;98438.16;;;7.47;68.95
9746;BME280;4912;50.836;12.958;2024-03-17T03:37:48;98445.91;;;7.36;68.15
9746;BME280;4912;50.836;12.958;2024-03-17T03:40:18;98438.16;;;7.31;69.02
9746;BME280;4912;50.836;12.958;2024-03-17T03:42:47;98437.13;;;7.25;68.54
9746;BME280;4912;50.836;12.958;2024-03-17T03:45:20;98427.66;;;7.26;69.12
9746;BME280;4912;50.836;12.958;2024-03-17T03:47:51;98436.94;;;7.32;69.07
9746;BME280;4912;50.836;12.958;2024-03-17T03:50:22;98436.28;;;7.28;69.12
9746;BME280;4912;50.836;12.958;2024-03-17T03:52:54;98439.78;;;7.28;69.19
9746;BME280;4912;50.836;12.958;2024-03-17T03:55:23;98445.47;;;7.37;69.63
9746;BME280;4912;50.836;12.958;2024-03-17T03:57:52;98446.94;;;7.26;68.95
9746;BME280;4912;50.836;12.958;2024-03-17T04:00:21;98449.16;;;7.15;69.70
9746;BME280;4912;50.836;12.958;2024-03-17T04:02:58;98443.75;;;7.11;69.87
9746;BME280;4912;50.836;12.958;2024-03-17T04:05:27;98444.94;;;6.94;70.29
9746;BME280;4912;50.836;12.958;2024-03-17T04:07:57;98443.28;;;6.80;70.78
9746;BME280;4912;50.836;12.958;2024-03-17T04:10:24;98442.09;;;6.81;71.12
9746;BME280;4912;50.836;12.958;2024-03-17T04:12:53;98445.72;;;6.94;71.19
9746;BME280;4912;50.836;12.958;2024-03-17T04:15:22;98445.25;;;6.80;70.90
9746;BME280;4912;50.836;12.958;2024-03-17T04:17:52;98447.88;;;6.67;71.73
9746;BME280;4912;50.836;12.958;2024-03-17T04:20:24;98442.06;;;6.65;72.42
9746;BME280;4912;50.836;12.958;2024-03-17T04:22:53;98445.75;;;6.75;72.47
9746;BME280;4912;50.836;12.958;2024-03-17T04:25:22;98440.94;;;6.79;72.23
9746;BME280;4912;50.836;12.958;2024-03-17T04:27:51;98442.19;;;6.94;72.17
9746;BME280;4912;50.836;12.958;2024-03-17T04:30:20;98440.75;;;7.06;71.82
9746;BME280;4912;50.836;12.958;2024-03-17T04:32:47;98435.06;;;7.13;71.06
9746;BME280;4912;50.836;12.958;2024-03-17T04:35:17;98443.22;;;7.00;70.77
9746;BME280;4912;50.836;12.958;2024-03-17T04:37:52;98439.66;;;6.83;71.70
9746;BME280;4912;50.836;12.958;2024-03-17T04:40:22;98441.03;;;6.75;72.12
9746;BME280;4912;50.836;12.958;2024-03-17T04:42:52;98436.31;;;6.76;72.31
9746;BME280;4912;50.836;12.958;2024-03-17T04:45:21;98435.97;;;6.54;72.26
9746;BME280;4912;50.836;12.958;2024-03-17T04:47:50;98445.44;;;6.53;72.62
9746;BME280;4912;50.836;12.958;2024-03-17T04:50:19;98446.84;;;6.61;72.77
9746;BME280;4912;50.836;12.958;2024-03-17T04:52:48;98450.72;;;6.64;72.74
9746;BME280;4912;50.836;12.958;2024-03-17T04:55:20;98452.41;;;6.57;73.12
9746;BME280;4912;50.836;12.958;2024-03-17T04:57:49;98451.50;;;6.64;72.92
9746;BME280;4912;50.836;12.958;2024-03-17T05:00:18;98455.97;;;6.38;73.14
9746;BME280;4912;50.836;12.958;2024-03-17T05:02:48;98460.53;;;6.45;73.72
9746;BME280;4912;50.836;12.958;2024-03-17T05:05:17;98462.00;;;6.49;73.75
9746;BME280;4912;50.836;12.958;2024-03-17T05:07:46;98471.38;;;6.52;73.75
9746;BME280;4912;50.836;12.958;2024-03-17T05:10:18;98468.94;;;6.74;73.42
9746;BME280;4912;50.836;12.958;2024-03-17T05:12:47;98470.16;;;6.73;73.73
9746;BME280;4912;50.836;12.958;2024-03-17T05:15:16;98476.91;;;6.88;73.35
9746;BME280;4912;50.836;12.958;2024-03-17T05:17:45;98460.31;;;6.91;72.89
9746;BME280;4912;50.836;12.958;2024-03-17T05:20:15;98470.28;;;7.02;72.68
9746;BME280;4912;50.836;12.958;2024-03-17T05:22:44;98469.63;;;7.14;72.19
9746;BME280;4912;50.836;12.958;2024-03-17T05:25:13;98469.44;;;7.05;72.19
9746;BME280;4912;50.836;12.958;2024-03-17T05:27:45;98469.97;;;7.16;71.62
9746;BME280;4912;50.836;12.958;2024-03-17T05:30:15;98468.41;;;6.98;71.33
9746;BME280;4912;50.836;12.958;2024-03-17T05:32:44;98480.91;;;6.83;72.45
9746;BME280;4912;50.836;12.958;2024-03-17T05:35:13;98474.03;;;6.75;72.56
9746;BME280;4912;50.836;12.958;2024-03-17T05:37:42;98473.63;;;6.77;72.63
9746;BME280;4912;50.836;12.958;2024-03-17T05:40:11;98479.00;;;6.64;73.29
9746;BME280;4912;50.836;12.958;2024-03-17T05:42:41;98487.66;;;6.63;73.50
9746;BME280;4912;50.836;12.958;2024-03-17T05:45:13;98493.66;;;6.77;73.47
9746;BME280;4912;50.836;12.958;2024-03-17T05:47:42;98493.94;;;6.63;73.45
9746;BME280;4912;50.836;12.958;2024-03-17T05:50:11;98495.50;;;6.64;74.14
9746;BME280;4912;50.836;12.958;2024-03-17T05:52:40;98497.41;;;6.83;73.90
9746;BME280;4912;50.836;12.958;2024-03-17T05:55:09;98500.94;;;6.84;72.84
9746;BME280;4912;50.836;12.958;2024-03-17T05:57:39;98503.16;;;6.73;73.49
9746;BME280;4912;50.836;12.958;2024-03-17T06:00:09;98509.84;;;6.72;74.16
9746;BME280;4912;50.836;12.958;2024-03-17T06:02:43;98513.78;;;6.90;73.50
9746;BME280;4912;50.836;12.958;2024-03-17T06:05:13;98509.00;;;6.94;72.84
9746;BME280;4912;50.836;12.958;2024-03-17T06:07:42;98506.25;;;7.11;72.31
9746;BME280;4912;50.836;12.958;2024-03-17T06:10:12;98513.91;;;7.03;72.07
9746;BME280;4912;50.836;12.958;2024-03-17T06:12:41;98504.81;;;7.06;72.31
9746;BME280;4912;50.836;12.958;2024-03-17T06:15:14;98511.75;;;6.94;72.40
9746;BME280;4912;50.836;12.958;2024-03-17T06:17:46;98506.53;;;7.16;71.94
9746;BME280;4912;50.836;12.958;2024-03-17T06:20:15;98507.47;;;7.26;71.75
9746;BME280;4912;50.836;12.958;2024-03-17T06:22:45;98505.09;;;7.28;71.69
9746;BME280;4912;50.836;12.958;2024-03-17T06:25:14;98503.22;;;7.41;71.39
9746;BME280;4912;50.836;12.958;2024-03-17T06:27:44;98507.41;;;7.46;71.42
9746;BME280;4912;50.836;12.958;2024-03-17T06:30:13;98507.31;;;7.49;70.35
9746;BME280;4912;50.836;12.958;2024-03-17T06:32:42;98510.69;;;7.57;70.66
9746;BME280;4912;50.836;12.958;2024-03-17T06:35:14;98515.06;;;7.54;70.79
9746;BME280;4912;50.836;12.958;2024-03-17T06:37:44;98514.38;;;7.34;70.96
9746;BME280;4912;50.836;12.958;2024-03-17T06:40:14;98518.75;;;7.31;71.70
9746;BME280;4912;50.836;12.958;2024-03-17T06:42:44;98510.44;;;7.35;71.15
9746;BME280;4912;50.836;12.958;2024-03-17T06:45:13;98518.84;;;7.44;71.44
9746;BME280;4912;50.836;12.958;2024-03-17T06:47:45;98523.41;;;7.67;70.97
9746;BME280;4912;50.836;12.958;2024-03-17T06:50:17;98527.72;;;7.84;70.27
9746;BME280;4912;50.836;12.958;2024-03-17T06:52:47;98531.59;;;7.70;70.27
9746;BME280;4912;50.836;12.958;2024-03-17T06:55:17;98526.53;;;7.69;70.77
9746;BME280;4912;50.836;12.958;2024-03-17T06:57:47;98532.03;;;7.69;70.84
9746;BME280;4912;50.836;12.958;2024-03-17T07:00:17;98531.44;;;7.77;71.02
9746;BME280;4912;50.836;12.958;2024-03-17T07:02:50;98540.28;;;7.69;71.27
9746;BME280;4912;50.836;12.958;2024-03-17T07:05:22;98540.19;;;7.56;71.47
9746;BME280;4912;50.836;12.958;2024-03-17T07:07:52;98542.94;;;7.56;72.14
9746;BME280;4912;50.836;12.958;2024-03-17T07:10:21;98547.63;;;7.59;72.16
9746;BME280;4912;50.836;12.958;2024-03-17T07:12:52;98544.84;;;7.75;71.52
9746;BME280;4912;50.836;12.958;2024-03-17T07:15:21;98542.47;;;7.77;71.70
9746;BME280;4912;50.836;12.958;2024-03-17T07:17:50;98549.56;;;7.91;71.61
9746;BME280;4912;50.836;12.958;2024-03-17T07:20:22;98550.44;;;7.88;71.22
9746;BME280;4912;50.836;12.958;2024-03-17T07:22:52;98548.47;;;7.89;70.99
9746;BME280;4912;50.836;12.958;2024-03-17T07:25:21;98552.50;;;8.00;70.73
9746;BME280;4912;50.836;12.958;2024-03-17T07:27:50;98554.03;;;8.17;70.91
9746;BME280;4912;50.836;12.958;2024-03-17T07:30:19;98555.00;;;8.11;69.93
9746;BME280;4912;50.836;12.958;2024-03-17T07:32:45;98551.38;;;7.98;70.40
9746;BME280;4912;50.836;12.958;2024-03-17T07:35:15;98559.53;;;8.17;70.45
9746;BME280;4912;50.836;12.958;2024-03-17T07:37:46;98559.25;;;8.28;69.38
9746;BME280;4912;50.836;12.958;2024-03-17T07:40:15;98556.88;;;8.59;69.39
9746;BME280;4912;50.836;12.958;2024-03-17T07:42:45;98559.19;;;8.89;68.93
9746;BME280;4912;50.836;12.958;2024-03-17T07:45:14;98557.19;;;8.90;68.00
9746;BME280;4912;50.836;12.958;2024-03-17T07:47:44;98559.09;;;9.06;67.00
9746;BME280;4912;50.836;12.958;2024-03-17T07:50:13;98558.97;;;9.09;66.80
9746;BME280;4912;50.836;12.958;2024-03-17T07:52:46;98557.91;;;9.32;67.05
9746;BME280;4912;50.836;12.958;2024-03-17T07:55:15;98558.56;;;9.23;66.40
9746;BME280;4912;50.836;12.958;2024-03-17T07:57:44;98559.03;;;9.34;67.14
9746;BME280;4912;50.836;12.958;2024-03-17T08:00:13;98558.13;;;9.50;66.26
9746;BME280;4912;50.836;12.958;2024-03-17T08:02:44;98561.13;;;9.56;65.39
9746;BME280;4912;50.836;12.958;2024-03-17T08:05:14;98558.34;;;9.68;64.58
9746;BME280;4912;50.836;12.958;2024-03-17T08:07:48;98553.53;;;10.07;64.07
9746;BME280;4912;50.836;12.958;2024-03-17T08:10:20;98548.22;;;10.12;62.67
9746;BME280;4912;50.836;12.958;2024-03-17T08:12:49;98552.06;;;10.15;63.16
9746;BME280;4912;50.836;12.958;2024-03-17T08:15:19;98558.63;;;10.43;63.29
9746;BME280;4912;50.836;12.958;2024-03-17T08:17:48;98559.63;;;10.92;60.18
9746;BME280;4912;50.836;12.958;2024-03-17T08:20:17;98550.56;;;10.70;60.42
9746;BME280;4912;50.836;12.958;2024-03-17T08:22:49;98552.31;;;10.77;61.51
9746;BME280;4912;50.836;12.958;2024-03-17T08:25:18;98544.81;;;10.86;61.25
9746;BME280;4912;50.836;12.958;2024-03-17T08:27:47;98558.53;;;11.12;60.59
9746;BME280;4912;50.836;12.958;2024-03-17T08:30:16;98543.72;;;11.05;60.10
9746;BME280;4912;50.836;12.958;2024-03-17T08:32:46;98545.53;;;11.30;59.57
9746;BME280;4912;50.836;12.958;2024-03-17T08:35:15;98537.09;;;11.43;59.91
9746;BME280;4912;50.836;12.958;2024-03-17T08:37:44;98531.56;;;13.20;56.63
9746;BME280;4912;50.836;12.958;2024-03-17T08:40:16;98527.00;;;15.42;49.91
9746;BME280;4912;50.836;12.958;2024-03-17T08:42:46;98528.91;;;15.21;48.32
9746;BME280;4912;50.836;12.958;2024-03-17T08:45:15;98515.41;;;16.85;44.85
9746;BME280;4912;50.836;12.958;2024-03-17T08:47:44;98512.75;;;15.89;44.73
9746;BME280;4912;50.836;12.958;2024-03-17T08:50:14;98512.09;;;15.15;47.17
9746;BME280;4912;50.836;12.958;2024-03-17T08:52:43;98505.63;;;15.39;45.37
9746;BME280;4912;50.836;12.958;2024-03-17T08:55:12;98497.88;;;15.98;45.66
9746;BME280;4912;50.836;12.958;2024-03-17T08:57:44;98499.56;;;16.10;44.82
9746;BME280;4912;50.836;12.958;2024-03-17T09:00:14;98495.13;;;17.16;43.46
9746;BME280;4912;50.836;12.958;2024-03-17T09:02:44;98495.53;;;19.40;37.78
9746;BME280;4912;50.836;12.958;2024-03-17T09:05:13;98487.88;;;19.24;36.47
9746;BME280;4912;50.836;12.958;2024-03-17T09:07:42;98485.09;;;19.07;37.38
9746;BME280;4912;50.836;12.958;2024-03-17T09:10:11;98478.28;;;20.16;35.74
9746;BME280;4912;50.836;12.958;2024-03-17T09:12:41;98473.84;;;21.25;33.49
9746;BME280;4912;50.836;12.958;2024-03-17T09:15:13;98467.19;;;20.87;32.48
9746;BME280;4912;50.836;12.958;2024-03-17T09:17:42;98476.63;;;18.79;36.02
9746;BME280;4912;50.836;12.958;2024-03-17T09:20:12;98472.03;;;18.71;37.02
9746;BME280;4912;50.836;12.958;2024-03-17T09:22:43;98476.91;;;19.59;36.15
9746;BME280;4912;50.836;12.958;2024-03-17T09:25:12;98476.78;;;20.04;33.05
9746;BME280;4912;50.836;12.958;2024-03-17T09:27:44;98477.16;;;18.89;36.01
9746;BME280;4912;50.836;12.958;2024-03-17T09:30:13;98471.56;;;19.06;35.07
9746;BME280;4912;50.836;12.958;2024-03-17T09:32:42;98474.38;;;17.28;37.95
9746;BME280;4912;50.836;12.958;2024-03-17T09:35:11;98478.06;;;16.36;39.90
9746;BME280;4912;50.836;12.958;2024-03-17T09:37:40;98479.78;;;15.73;40.60
9746;BME280;4912;50.836;12.958;2024-03-17T09:40:13;98471.25;;;15.62;40.46
9746;BME280;4912;50.836;12.958;2024-03-17T09:42:45;98472.81;;;18.01;37.31
9746;BME280;4912;50.836;12.958;2024-03-17T09:45:14;98470.41;;;18.36;34.99
9746;BME280;4912;50.836;12.958;2024-03-17T09:47:45;98476.03;;;17.14;36.51
9746;BME280;4912;50.836;12.958;2024-03-17T09:50:14;98470.03;;;16.04;38.99
9746;BME280;4912;50.836;12.958;2024-03-17T09:52:45;98479.16;;;14.99;38.93
9746;BME280;4912;50.836;12.958;2024-03-17T09:55:15;98471.69;;;14.38;39.96
9746;BME280;4912;50.836;12.958;2024-03-17T09:57:47;98475.69;;;14.75;40.96
9746;BME280;4912;50.836;12.958;2024-03-17T10:00:17;98473.56;;;16.45;39.26
9746;BME280;4912;50.836;12.958;2024-03-17T10:02:47;98465.91;;;15.79;39.40
9746;BME280;4912;50.836;12.958;2024-03-17T10:05:19;98473.78;;;14.96;38.64
9746;BME280;4912;50.836;12.958;2024-03-17T10:07:50;98473.09;;;14.33;41.08
9746;BME280;4912;50.836;12.958;2024-03-17T10:10:20;98466.41;;;14.25;42.54
9746;BME280;4912;50.836;12.958;2024-03-17T10:12:52;98469.38;;;13.98;43.04
9746;BME280;4912;50.836;12.958;2024-03-17T10:15:21;98472.38;;;13.85;43.18
9746;BME280;4912;50.836;12.958;2024-03-17T10:17:51;98465.66;;;13.77;42.87
9746;BME280;4912;50.836;12.958;2024-03-17T10:20:21;98467.13;;;13.87;42.20
9746;BME280;4912;50.836;12.958;2024-03-17T10:22:58;98467.59;;;15.21;41.17
9746;BME280;4912;50.836;12.958;2024-03-17T10:25:29;98467.19;;;16.64;38.69
9746;BME280;4912;50.836;12.958;2024-03-17T10:28:01;98467.56;;;17.35;35.74
9746;BME280;4912;50.836;12.958;2024-03-17T10:30:30;98468.03;;;18.13;34.67
9746;BME280;4912;50.836;12.958;2024-03-17T10:32:59;98457.19;;;18.42;33.05
9746;BME280;4912;50.836;12.958;2024-03-17T10:35:31;98464.72;;;17.61;33.38
9746;BME280;4912;50.836;12.958;2024-03-17T10:38:03;98455.75;;;17.19;34.30
9746;BME280;4912;50.836;12.958;2024-03-17T10:40:34;98453.81;;;16.74;35.23
9746;BME280;4912;50.836;12.958;2024-03-17T10:43:07;98452.81;;;16.51;35.55
9746;BME280;4912;50.836;12.958;2024-03-17T10:45:36;98447.53;;;16.33;35.73
9746;BME280;4912;50.836;12.958;2024-03-17T10:48:07;98450.94;;;15.76;36.21
9746;BME280;4912;50.836;12.958;2024-03-17T10:50:37;98455.41;;;15.19;37.21
9746;BME280;4912;50.836;12.958;2024-03-17T10:53:07;98453.31;;;14.84;38.34
9746;BME280;4912;50.836;12.958;2024-03-17T10:55:40;98453.22;;;14.64;39.17
9746;BME280;4912;50.836;12.958;2024-03-17T10:58:19;98449.19;;;14.26;40.56
9746;BME280;4912;50.836;12.958;2024-03-17T11:00:52;98448.19;;;14.97;40.87
9746;BME280;4912;50.836;12.958;2024-03-17T11:03:22;98439.59;;;16.26;36.19
9746;BME280;4912;50.836;12.958;2024-03-17T11:05:52;98451.81;;;17.37;37.20
9746;BME280;4912;50.836;12.958;2024-03-17T11:08:23;98444.81;;;18.07;33.77
9746;BME280;4912;50.836;12.958;2024-03-17T11:10:53;98442.13;;;18.34;31.02
9746;BME280;4912;50.836;12.958;2024-03-17T11:13:26;98435.88;;;19.01;31.62
9746;BME280;4912;50.836;12.958;2024-03-17T11:15:56;98434.47;;;19.91;31.25
9746;BME280;4912;50.836;12.958;2024-03-17T11:18:37;98427.31;;;20.48;29.38
9746;BME280;4912;50.836;12.958;2024-03-17T11:21:08;98423.78;;;20.77;28.39
9746;BME280;4912;50.836;12.958;2024-03-17T11:24:00;98427.16;;;21.84;27.21
9746;BME280;4912;50.836;12.958;2024-03-17T11:26:31;98428.88;;;20.43;27.67
9746;BME280;4912;50.836;12.958;2024-03-17T11:29:04;98428.94;;;19.52;28.78
9746;BME280;4912;50.836;12.958;2024-03-17T11:31:41;98428.09;;;19.79;29.92
9746;BME280;4912;50.836;12.958;2024-03-17T11:34:27;98417.19;;;21.58;29.45
9746;BME280;4912;50.836;12.958;2024-03-17T11:36:55;98412.81;;;22.06;26.86
9746;BME280;4912;50.836;12.958;2024-03-17T11:42:15;98415.31;;;20.82;27.90
9746;BME280;4912;50.836;12.958;2024-03-17T11:44:56;98413.34;;;21.61;27.39
9746;BME280;4912;50.836;12.958;2024-03-17T11:47:33;98414.09;;;21.38;26.78
9746;BME280;4912;50.836;12.958;2024-03-17T11:50:04;98405.88;;;22.63;25.91
9746;BME280;4912;50.836;12.958;2024-03-17T11:52:33;98398.28;;;23.35;25.31
9746;BME280;4912;50.836;12.958;2024-03-17T11:55:02;98394.31;;;23.57;25.70
9746;BME280;4912;50.836;12.958;2024-03-17T11:57:32;98401.03;;;23.93;25.60
9746;BME280;4912;50.836;12.958;2024-03-17T12:00:01;98393.97;;;24.81;24.13
9746;BME280;4912;50.836;12.958;2024-03-17T12:02:31;98410.50;;;25.11;22.54
9746;BME280;4912;50.836;12.958;2024-03-17T12:05:00;98397.78;;;25.74;23.08
9746;BME280;4912;50.836;12.958;2024-03-17T12:07:29;98396.34;;;26.24;21.52
9746;BME280;4912;50.836;12.958;2024-03-17T12:09:57;98410.66;;;26.55;21.25
9746;BME280;4912;50.836;12.958;2024-03-17T12:12:28;98399.53;;;26.87;20.95
9746;BME280;4912;50.836;12.958;2024-03-17T12:15:03;98402.84;;;25.19;21.19
9746;BME280;4912;50.836;12.958;2024-03-17T12:17:45;98398.31;;;24.82;22.19
9746;BME280;4912;50.836;12.958;2024-03-17T12:20:19;98396.22;;;26.01;22.22
9746;BME280;4912;50.836;12.958;2024-03-17T12:22:49;98378.78;;;27.07;20.59
9746;BME280;4912;50.836;12.958;2024-03-17T12:25:18;98373.66;;;27.44;20.94
9746;BME280;4912;50.836;12.958;2024-03-17T12:27:51;98366.63;;;27.37;19.84
9746;BME280;4912;50.836;12.958;2024-03-17T12:30:20;98373.19;;;26.64;20.31
9746;BME280;4912;50.836;12.958;2024-03-17T12:32:50;98367.97;;;27.13;20.94
9746;BME280;4912;50.836;12.958;2024-03-17T12:35:18;98363.59;;;27.05;20.45
9746;BME280;4912;50.836;12.958;2024-03-17T12:37:47;98364.53;;;27.68;20.63
9746;BME280;4912;50.836;12.958;2024-03-17T12:40:20;98360.69;;;26.52;21.47
9746;BME280;4912;50.836;12.958;2024-03-17T12:42:51;98358.13;;;27.14;20.92
9746;BME280;4912;50.836;12.958;2024-03-17T12:45:23;98355.84;;;27.20;19.55
9746;BME280;4912;50.836;12.958;2024-03-17T12:47:52;98360.56;;;27.10;19.99
9746;BME280;4912;50.836;12.958;2024-03-17T12:50:20;98357.94;;;26.97;20.68
9746;BME280;4912;50.836;12.958;2024-03-17T12:52:53;98358.31;;;27.32;19.68
9746;BME280;4912;50.836;12.958;2024-03-17T12:55:21;98350.88;;;27.74;19.79
9746;BME280;4912;50.836;12.958;2024-03-17T12:58:07;98358.28;;;27.39;19.52
9746;BME280;4912;50.836;12.958;2024-03-17T13:00:59;98354.88;;;28.19;19.92
9746;BME280;4912;50.836;12.958;2024-03-17T13:03:30;98349.09;;;28.74;19.22
9746;BME280;4912;50.836;12.958;2024-03-17T13:06:00;98344.28;;;28.84;19.47
9746;BME280;4912;50.836;12.958;2024-03-17T13:08:32;98337.91;;;29.18;19.68
9746;BME280;4912;50.836;12.958;2024-03-17T13:11:01;98338.34;;;29.56;18.93
9746;BME280;4912;50.836;12.958;2024-03-17T13:13:31;98332.13;;;29.85;18.27
9746;BME280;4912;50.836;12.958;2024-03-17T13:16:03;98336.84;;;30.34;18.48
9746;BME280;4912;50.836;12.958;2024-03-17T13:18:32;98323.38;;;30.71;19.18
9746;BME280;4912;50.836;12.958;2024-03-17T13:21:02;98320.03;;;29.94;18.14
9746;BME280;4912;50.836;12.958;2024-03-17T13:23:32;98325.31;;;28.06;19.33
9746;BME280;4912;50.836;12.958;2024-03-17T13:26:01;98323.22;;;28.15;19.46
9746;BME280;4912;50.836;12.958;2024-03-17T13:28:30;98325.94;;;27.19;20.09
9746;BME280;4912;50.836;12.958;2024-03-17T13:30:59;98320.72;;;27.71;19.60
9746;BME280;4912;50.836;12.958;2024-03-17T13:33:32;98321.75;;;28.71;18.66
9746;BME280;4912;50.836;12.958;2024-03-17T13:36:02;98314.50;;;29.44;18.86